Terminal Aerodrome Forecast
Issued by NWS

Home | Current Version | Previous Version | Text Only | Print | Product List | Glossary On
Versions: 1 2 3 4 5 6 7 8 9 10 11 12 13 14
611
FTUS45 KMSO 090520
TAFSMN
TAF
KSMN 090520Z 0906/1006 VRB03KT 3SM -SN BR BKN030 OVC040
      TEMPO 0906/0908 1SM -SN BKN015
     FM091000 VRB03KT P6SM VCSH BKN050
     FM092000 VRB03KT 3SM -SN BKN025 OVC040
      AMD LTD TO CLD VIS AND WIND=

USA.gov is the U.S. government's official web portal to all federal, state and local government web resources and services.